Time;durP1;ratioP1;P1;durP2;ratioP2;P2;SDS_P1;SDS_P2;PMS_P1;PMS_P2;Temp;Humidity;BMP_temperature;BMP_pressure;BME280_temperature;BME280_humidity;BME280_pressure;Samples;Min_cycle;Max_cycle;Signal;HPM_P1;HPM_P2
2021/01/17 00:00:45;;;;;;;10.00;6.00;;;-1.00;99.90;;;;;;5071103;28;20233;-75
2021/01/17 00:03:11;;;;;;;10.20;5.40;;;-1.00;99.90;;;;;;5071788;28;20221;-74
2021/01/17 00:05:37;;;;;;;7.93;5.90;;;-1.00;99.90;;;;;;5072165;28;20580;-74
2021/01/17 00:08:09;;;;;;;8.77;5.50;;;-1.00;99.90;;;;;;5061394;28;20182;-74
2021/01/17 00:10:36;;;;;;;8.93;6.07;;;-0.90;99.90;;;;;;5052537;28;20469;-74
2021/01/17 00:13:03;;;;;;;10.18;6.32;;;-0.90;99.90;;;;;;5065919;28;20175;-74
2021/01/17 00:15:29;;;;;;;7.10;5.88;;;-0.90;99.90;;;;;;5076857;28;20227;-75
2021/01/17 00:17:55;;;;;;;8.43;5.43;;;-0.90;99.90;;;;;;5075735;28;20508;-75
2021/01/17 00:20:22;;;;;;;7.00;5.07;;;-0.80;99.90;;;;;;5071467;28;20178;-74
2021/01/17 00:22:48;;;;;;;10.02;6.30;;;-0.90;99.90;;;;;;5064182;28;20212;-74
2021/01/17 00:25:16;;;;;;;9.38;6.10;;;-0.80;99.90;;;;;;5051969;28;20178;-75
2021/01/17 00:27:42;;;;;;;9.02;5.07;;;-0.80;99.90;;;;;;5069104;28;20186;-74
2021/01/17 00:30:10;;;;;;;9.43;5.70;;;-0.80;99.90;;;;;;5070214;28;20225;-75
2021/01/17 00:32:36;;;;;;;10.73;6.50;;;-0.80;99.90;;;;;;5071185;28;20185;-74
2021/01/17 00:35:03;;;;;;;8.80;6.10;;;-0.80;99.90;;;;;;5070657;28;20190;-74
2021/01/17 00:37:29;;;;;;;10.55;6.05;;;-0.80;99.90;;;;;;5072716;28;20464;-74
2021/01/17 00:39:54;;;;;;;11.07;6.00;;;-0.80;99.90;;;;;;5075456;28;20220;-74
2021/01/17 00:42:20;;;;;;;10.17;6.53;;;-0.80;99.90;;;;;;5074503;28;20257;-74
2021/01/17 00:44:45;;;;;;;12.70;7.87;;;-0.80;99.90;;;;;;5075728;28;20189;-74
2021/01/17 00:47:14;;;;;;;8.40;5.97;;;-0.80;99.90;;;;;;5075069;28;20206;-74
2021/01/17 00:49:43;;;;;;;10.50;6.93;;;-0.80;99.90;;;;;;5055309;28;20219;-75
2021/01/17 00:52:19;;;;;;;8.88;6.97;;;-0.80;99.90;;;;;;5064092;28;20588;-74
2021/01/17 00:54:45;;;;;;;12.35;7.80;;;-0.80;99.90;;;;;;5071426;28;20274;-74
2021/01/17 00:57:11;;;;;;;8.95;6.55;;;-0.80;99.90;;;;;;5075312;28;20178;-74
2021/01/17 00:59:36;;;;;;;13.20;7.43;;;-0.80;99.90;;;;;;5056845;28;20210;-75
2021/01/17 01:02:03;;;;;;;10.40;7.20;;;-0.80;99.90;;;;;;5074528;28;20229;-74
2021/01/17 01:04:29;;;;;;;10.18;7.45;;;-0.80;99.90;;;;;;5056774;28;20187;-74
2021/01/17 01:06:54;;;;;;;10.80;7.30;;;-0.80;99.90;;;;;;5058661;28;20557;-74
2021/01/17 01:09:20;;;;;;;11.93;6.73;;;-0.80;99.90;;;;;;5073740;28;20707;-74
2021/01/17 01:11:47;;;;;;;9.03;6.80;;;-0.80;99.90;;;;;;5075013;28;20231;-74
2021/01/17 01:14:13;;;;;;;7.65;6.82;;;-0.80;99.90;;;;;;5059491;28;20428;-75
2021/01/17 01:16:39;;;;;;;11.17;7.97;;;-0.80;99.90;;;;;;5065422;28;20664;-74
2021/01/17 01:19:04;;;;;;;9.67;7.33;;;-0.80;99.90;;;;;;5072823;28;20194;-74
2021/01/17 01:21:32;;;;;;;11.20;7.97;;;-0.80;99.90;;;;;;5074800;28;20202;-75
2021/01/17 01:23:58;;;;;;;8.43;7.07;;;-0.80;99.90;;;;;;5065597;28;20178;-74
2021/01/17 01:26:24;;;;;;;12.52;8.60;;;-0.80;99.90;;;;;;5074640;28;20653;-74
2021/01/17 01:28:54;;;;;;;11.18;6.85;;;-0.80;99.90;;;;;;5069980;28;20185;-74
2021/01/17 01:31:24;;;;;;;10.60;7.47;;;-0.80;99.90;;;;;;5074723;28;20204;-74
2021/01/17 01:33:51;;;;;;;9.60;7.40;;;-0.80;99.90;;;;;;5066504;28;20265;-74
2021/01/17 01:36:18;;;;;;;11.50;7.63;;;-0.80;99.90;;;;;;5054558;28;20193;-74
2021/01/17 01:38:43;;;;;;;13.45;7.88;;;-0.80;99.90;;;;;;5068031;28;20540;-74
2021/01/17 01:41:09;;;;;;;11.40;7.67;;;-0.80;99.90;;;;;;5074616;28;20189;-74
2021/01/17 01:43:34;;;;;;;11.90;8.07;;;-0.80;99.90;;;;;;5068310;28;20660;-74
2021/01/17 01:46:00;;;;;;;13.40;8.83;;;-0.80;99.90;;;;;;5054338;28;20175;-74
2021/01/17 01:48:32;;;;;;;10.43;8.20;;;-0.80;99.90;;;;;;5057469;28;20182;-74
2021/01/17 01:50:58;;;;;;;9.32;6.97;;;-0.80;99.90;;;;;;5073547;28;20220;-74
2021/01/17 01:53:24;;;;;;;14.83;8.90;;;-0.80;99.90;;;;;;5073618;28;20178;-74
2021/01/17 01:55:51;;;;;;;9.30;7.40;;;-0.90;99.90;;;;;;5072778;28;20182;-74
2021/01/17 01:58:21;;;;;;;11.70;7.90;;;-0.90;99.90;;;;;;5072275;28;20185;-74
2021/01/17 02:00:47;;;;;;;14.70;8.48;;;-0.80;99.90;;;;;;5073834;28;20250;-74
2021/01/17 02:03:12;;;;;;;10.07;7.37;;;-0.90;99.90;;;;;;5073413;28;20186;-74
2021/01/17 02:05:38;;;;;;;13.43;8.27;;;-0.80;99.90;;;;;;5073749;28;20217;-74
2021/01/17 02:08:12;;;;;;;14.30;7.90;;;-0.80;99.90;;;;;;5072316;28;20185;-74
2021/01/17 02:10:43;;;;;;;12.82;8.55;;;-0.80;99.90;;;;;;5073452;28;20239;-74
2021/01/17 02:13:35;;;;;;;10.50;7.90;;;-0.80;99.90;;;;;;5071863;28;20221;-74
2021/01/17 02:16:02;;;;;;;10.95;7.63;;;-0.80;99.90;;;;;;5073352;28;20186;-74
2021/01/17 02:18:29;;;;;;;14.25;8.60;;;-0.80;99.90;;;;;;5057162;28;20189;-74
2021/01/17 02:20:55;;;;;;;12.95;7.50;;;-0.80;99.90;;;;;;5055247;28;20178;-74
2021/01/17 02:23:33;;;;;;;12.50;7.37;;;-0.80;99.90;;;;;;5072782;28;20190;-74
2021/01/17 02:25:59;;;;;;;12.73;8.30;;;-0.80;99.90;;;;;;5073747;28;20419;-74
2021/01/17 02:28:24;;;;;;;11.60;7.97;;;-0.80;99.90;;;;;;5068529;28;20186;-74
2021/01/17 02:30:55;;;;;;;17.27;10.07;;;-0.80;99.90;;;;;;5073491;28;20239;-74
2021/01/17 02:33:32;;;;;;;9.38;7.63;;;-0.80;99.90;;;;;;5072398;28;20178;-74
2021/01/17 02:36:06;;;;;;;11.93;8.15;;;-0.80;99.90;;;;;;5073327;28;20182;-74
2021/01/17 02:38:44;;;;;;;9.20;6.40;;;-0.80;99.90;;;;;;5057368;28;20269;-74
2021/01/17 02:41:28;;;;;;;12.95;7.65;;;-0.80;99.90;;;;;;5053407;28;20661;-74
2021/01/17 02:43:54;;;;;;;11.57;7.65;;;-0.80;99.90;;;;;;5070966;28;20196;-74
2021/01/17 02:46:19;;;;;;;11.77;7.70;;;-0.80;99.90;;;;;;5073198;28;20256;-74
2021/01/17 02:48:45;;;;;;;10.53;6.80;;;-0.80;99.90;;;;;;5071215;28;20216;-74
2021/01/17 02:51:10;;;;;;;15.30;8.53;;;-0.80;99.90;;;;;;5072989;28;20197;-74
2021/01/17 02:54:00;;;;;;;12.27;8.07;;;-0.80;99.90;;;;;;5072083;28;20256;-74
2021/01/17 02:56:31;;;;;;;9.27;6.80;;;-0.70;99.90;;;;;;5073071;28;20170;-74
2021/01/17 02:58:57;;;;;;;12.45;7.10;;;-0.70;99.90;;;;;;5058300;28;20210;-74
2021/01/17 03:01:27;;;;;;;10.68;8.35;;;-0.70;99.90;;;;;;5061954;28;20214;-74
2021/01/17 03:04:00;;;;;;;12.60;8.25;;;-0.70;99.90;;;;;;5053918;28;20221;-74
2021/01/17 03:06:27;;;;;;;11.63;7.85;;;-0.70;99.90;;;;;;5053900;28;20200;-74
2021/01/17 03:08:53;;;;;;;11.15;8.10;;;-0.70;99.90;;;;;;5070775;28;20545;-74
2021/01/17 03:11:20;;;;;;;11.30;7.70;;;-0.70;99.90;;;;;;5072006;28;20190;-74
2021/01/17 03:13:46;;;;;;;10.30;7.13;;;-0.70;99.90;;;;;;5071157;28;20243;-74
2021/01/17 03:16:12;;;;;;;11.52;8.00;;;-0.60;99.90;;;;;;5072408;28;20712;-74
2021/01/17 03:18:37;;;;;;;14.03;9.07;;;-0.60;99.90;;;;;;5062546;28;20269;-74
2021/01/17 03:21:03;;;;;;;14.57;8.23;;;-0.60;99.90;;;;;;5072819;28;20181;-74
2021/01/17 03:23:28;;;;;;;12.03;9.10;;;-0.60;99.90;;;;;;5055750;28;20248;-74
2021/01/17 03:25:54;;;;;;;11.37;7.80;;;-0.60;99.90;;;;;;5052651;28;20178;-74
2021/01/17 03:28:19;;;;;;;13.77;8.80;;;-0.60;99.90;;;;;;5068126;28;20189;-74
2021/01/17 03:30:45;;;;;;;11.17;7.57;;;-0.60;99.90;;;;;;5072593;28;20388;-74
2021/01/17 03:33:10;;;;;;;13.93;9.50;;;-0.60;99.90;;;;;;5071841;28;20272;-74
2021/01/17 03:35:36;;;;;;;14.13;8.50;;;-0.60;99.90;;;;;;5072596;28;20178;-74
2021/01/17 03:38:02;;;;;;;13.70;9.17;;;-0.60;99.90;;;;;;5071523;28;20182;-74
2021/01/17 03:40:27;;;;;;;14.88;8.90;;;-0.60;99.90;;;;;;5072449;28;20269;-74
2021/01/17 03:42:53;;;;;;;12.40;8.20;;;-0.60;99.90;;;;;;5071830;28;20293;-74
2021/01/17 03:45:18;;;;;;;10.10;7.03;;;-0.60;99.90;;;;;;5072495;28;20186;-74
2021/01/17 03:47:44;;;;;;;13.80;8.57;;;-0.60;99.90;;;;;;5070347;28;20234;-74
2021/01/17 03:50:11;;;;;;;12.30;9.23;;;-0.60;99.90;;;;;;5072267;28;20213;-75
2021/01/17 03:52:37;;;;;;;13.45;8.85;;;-0.60;99.90;;;;;;5071733;28;20265;-74
2021/01/17 03:55:03;;;;;;;14.87;8.63;;;-0.60;99.90;;;;;;5072371;28;20312;-74
2021/01/17 03:57:28;;;;;;;14.40;9.23;;;-0.60;99.90;;;;;;5066099;28;20932;-74
2021/01/17 03:59:54;;;;;;;14.50;8.67;;;-0.60;99.90;;;;;;5071815;28;20194;-74
2021/01/17 04:02:19;;;;;;;13.57;8.80;;;-0.60;99.90;;;;;;5069824;28;20304;-74
2021/01/17 04:04:45;;;;;;;15.73;8.87;;;-0.60;99.90;;;;;;5072316;28;20177;-74
2021/01/17 04:07:11;;;;;;;13.10;8.93;;;-0.60;99.90;;;;;;5071471;28;20657;-74
2021/01/17 04:09:36;;;;;;;13.47;7.97;;;-0.60;99.90;;;;;;5072044;28;20213;-74
2021/01/17 04:12:02;;;;;;;10.47;7.53;;;-0.60;99.90;;;;;;5072781;28;20189;-74
2021/01/17 04:14:27;;;;;;;16.10;8.57;;;-0.60;99.90;;;;;;5076000;28;20603;-74
2021/01/17 04:16:53;;;;;;;10.93;7.37;;;-0.60;99.90;;;;;;5075278;28;20189;-74
2021/01/17 04:19:19;;;;;;;11.33;7.77;;;-0.60;99.90;;;;;;5076008;28;20185;-74
2021/01/17 04:21:45;;;;;;;16.47;8.93;;;-0.60;99.90;;;;;;5067023;28;20256;-75
2021/01/17 04:24:10;;;;;;;11.70;8.57;;;-0.60;99.90;;;;;;5071484;28;20538;-74
2021/01/17 04:26:36;;;;;;;10.87;7.67;;;-0.60;99.90;;;;;;5074820;28;20439;-74
2021/01/17 04:29:02;;;;;;;15.10;9.00;;;-0.60;99.90;;;;;;5075873;28;20633;-74
2021/01/17 04:31:27;;;;;;;12.17;8.27;;;-0.60;99.90;;;;;;5069911;28;20654;-74
2021/01/17 04:33:53;;;;;;;14.57;9.17;;;-0.60;99.90;;;;;;5054402;28;21247;-74
2021/01/17 04:36:18;;;;;;;15.33;8.57;;;-0.60;99.90;;;;;;5061077;28;20186;-74
2021/01/17 04:38:44;;;;;;;11.63;7.73;;;-0.60;99.90;;;;;;5075662;28;20188;-74
2021/01/17 04:41:13;;;;;;;15.03;9.33;;;-0.60;99.90;;;;;;5073879;28;20177;-75
2021/01/17 04:43:40;;;;;;;13.60;8.68;;;-0.60;99.90;;;;;;5075554;28;20180;-74
2021/01/17 04:46:07;;;;;;;14.55;7.95;;;-0.60;99.90;;;;;;5074649;28;20178;-74
2021/01/17 04:48:34;;;;;;;16.70;9.40;;;-0.60;99.90;;;;;;5075427;28;20174;-74
2021/01/17 04:51:02;;;;;;;11.50;8.35;;;-0.60;99.90;;;;;;5075059;28;20228;-74
2021/01/17 04:53:29;;;;;;;16.35;9.80;;;-0.60;99.90;;;;;;5073568;28;20239;-74
2021/01/17 04:56:17;;;;;;;12.07;7.88;;;-0.60;99.90;;;;;;5075007;28;20212;-74
2021/01/17 04:59:05;;;;;;;12.15;8.48;;;-0.60;99.90;;;;;;5055334;28;20240;-75
2021/01/17 05:01:48;;;;;;;13.15;8.70;;;-0.50;99.90;;;;;;5072694;28;20232;-74
2021/01/17 05:04:47;;;;;;;13.70;8.95;;;-0.60;99.90;;;;;;5075362;28;20185;-75
2021/01/17 05:07:21;;;;;;;14.82;9.75;;;-0.60;99.90;;;;;;5068343;28;20239;-74
2021/01/17 05:10:03;;;;;;;11.73;8.10;;;-0.60;99.90;;;;;;5074294;28;20290;-75
2021/01/17 05:12:39;;;;;;;14.48;8.35;;;-0.60;99.90;;;;;;5074570;28;20177;-74
2021/01/17 05:15:07;;;;;;;11.55;8.38;;;-0.60;99.90;;;;;;5062765;28;20239;-74
2021/01/17 05:17:38;;;;;;;18.40;8.85;;;-0.60;99.90;;;;;;5073931;28;20220;-75
2021/01/17 05:20:05;;;;;;;16.38;10.55;;;-0.60;99.90;;;;;;5087497;28;20752;-74
2021/01/17 05:22:31;;;;;;;14.38;9.18;;;-0.50;99.90;;;;;;5064169;28;20649;-74
2021/01/17 05:24:58;;;;;;;15.50;10.43;;;-0.50;99.90;;;;;;5058638;28;20186;-74
2021/01/17 05:27:24;;;;;;;12.65;9.55;;;-0.50;99.90;;;;;;5074294;28;20878;-74
2021/01/17 05:29:49;;;;;;;15.45;9.43;;;-0.50;99.90;;;;;;5073886;28;20222;-75
2021/01/17 05:32:15;;;;;;;14.40;8.97;;;-0.50;99.90;;;;;;5074378;28;20182;-74
2021/01/17 05:34:41;;;;;;;14.20;10.13;;;-0.50;99.90;;;;;;5073658;28;20265;-74
2021/01/17 05:37:14;;;;;;;11.77;8.45;;;-0.50;99.90;;;;;;5074778;28;20185;-74
2021/01/17 05:39:59;;;;;;;16.85;10.85;;;-0.50;99.90;;;;;;5073663;28;20603;-74
2021/01/17 05:42:29;;;;;;;11.02;9.43;;;-0.50;99.90;;;;;;5074549;28;20205;-74
2021/01/17 05:45:11;;;;;;;14.23;10.50;;;-0.50;99.90;;;;;;5067085;28;20193;-74
2021/01/17 05:47:37;;;;;;;16.67;10.35;;;-0.50;99.90;;;;;;5083966;28;20193;-74
2021/01/17 05:50:08;;;;;;;13.77;9.70;;;-0.40;99.90;;;;;;5069444;28;20213;-74
2021/01/17 05:52:35;;;;;;;11.88;8.93;;;-0.40;99.90;;;;;;5073689;28;20522;-74
2021/01/17 05:55:01;;;;;;;13.80;8.70;;;-0.40;99.90;;;;;;5072670;28;20186;-74
2021/01/17 05:57:28;;;;;;;15.40;10.05;;;-0.40;99.90;;;;;;5073905;28;20182;-74
2021/01/17 05:59:53;;;;;;;15.88;9.50;;;-0.40;99.90;;;;;;5068775;28;20456;-75
2021/01/17 06:02:21;;;;;;;16.00;10.07;;;-0.30;99.90;;;;;;5072551;28;20746;-74
2021/01/17 06:05:02;;;;;;;17.30;9.30;;;-0.20;99.90;;;;;;5073542;28;20269;-74
2021/01/17 06:07:29;;;;;;;13.98;8.05;;;-0.20;99.90;;;;;;5073268;28;20262;-75
2021/01/17 06:10:00;;;;;;;13.23;8.30;;;-0.20;99.90;;;;;;5073135;28;20224;-74
2021/01/17 06:12:50;;;;;;;14.88;9.20;;;-0.20;99.90;;;;;;5072921;28;20530;-74
2021/01/17 06:15:15;;;;;;;15.23;9.30;;;-0.20;99.90;;;;;;5066235;28;20189;-74
2021/01/17 06:17:45;;;;;;;17.30;10.30;;;-0.20;99.90;;;;;;5065563;28;20189;-74
2021/01/17 06:20:20;;;;;;;17.92;10.13;;;-0.20;99.90;;;;;;5065326;28;20178;-74
2021/01/17 06:22:55;;;;;;;15.60;10.43;;;-0.20;99.90;;;;;;5069922;28;20208;-74
2021/01/17 06:25:29;;;;;;;15.35;10.38;;;-0.10;99.90;;;;;;5073243;28;20217;-74
2021/01/17 06:28:14;;;;;;;14.52;9.95;;;-0.10;99.90;;;;;;5072093;28;20216;-74
2021/01/17 06:30:41;;;;;;;14.57;9.07;;;-0.10;99.90;;;;;;5073092;28;20284;-74
2021/01/17 06:33:07;;;;;;;14.48;10.85;;;-0.10;99.90;;;;;;5072178;28;20308;-74
2021/01/17 06:35:35;;;;;;;17.27;11.25;;;-0.10;99.90;;;;;;5072536;28;20260;-74
2021/01/17 06:38:17;;;;;;;19.90;11.82;;;-0.10;99.90;;;;;;5072161;28;20524;-74
2021/01/17 06:40:48;;;;;;;19.65;13.18;;;-0.10;99.90;;;;;;5073024;28;20189;-75
2021/01/17 06:43:14;;;;;;;18.33;11.35;;;-0.10;99.90;;;;;;5071884;28;20539;-74
2021/01/17 06:45:45;;;;;;;17.15;12.00;;;-0.10;99.90;;;;;;5072760;28;20184;-74
2021/01/17 06:48:30;;;;;;;22.17;12.60;;;-0.10;99.90;;;;;;5071790;28;20243;-74
2021/01/17 06:51:18;;;;;;;20.77;11.10;;;-0.10;99.90;;;;;;5072002;28;20233;-74
2021/01/17 06:53:55;;;;;;;16.98;11.13;;;-0.10;99.90;;;;;;5068164;28;20186;-74
2021/01/17 06:56:20;;;;;;;20.63;12.35;;;-0.10;99.90;;;;;;5063889;28;20181;-74
2021/01/17 06:58:49;;;;;;;18.27;11.93;;;0.00;99.90;;;;;;5072483;28;20258;-74
2021/01/17 07:01:15;;;;;;;16.92;11.27;;;0.00;99.90;;;;;;5071202;28;20537;-74
2021/01/17 07:04:03;;;;;;;20.57;13.73;;;0.00;99.90;;;;;;5072324;28;20590;-74
2021/01/17 07:07:05;;;;;;;16.85;10.75;;;0.00;99.90;;;;;;5054395;28;20642;-74
2021/01/17 07:09:50;;;;;;;18.08;12.45;;;0.00;99.90;;;;;;5070532;28;20243;-74
2021/01/17 07:12:24;;;;;;;16.95;10.50;;;-0.10;99.90;;;;;;5071538;28;20182;-74
2021/01/17 07:15:03;;;;;;;13.30;10.07;;;-0.10;99.90;;;;;;5072532;28;20588;-74
2021/01/17 07:17:33;;;;;;;19.67;10.63;;;-0.10;99.90;;;;;;5071398;28;20185;-74
2021/01/17 07:20:04;;;;;;;19.13;10.32;;;-0.10;99.90;;;;;;5072049;28;20181;-74
2021/01/17 07:22:31;;;;;;;16.92;11.05;;;-0.10;99.90;;;;;;5071338;28;20202;-74
2021/01/17 07:24:56;;;;;;;16.50;11.38;;;0.00;99.90;;;;;;5072521;28;20616;-74
2021/01/17 07:27:34;;;;;;;19.10;11.43;;;0.00;99.90;;;;;;5071370;28;20209;-74
2021/01/17 07:29:59;;;;;;;20.90;11.95;;;0.00;99.90;;;;;;5072131;28;20764;-74
2021/01/17 07:32:32;;;;;;;21.37;12.40;;;0.00;99.90;;;;;;5071028;28;20261;-74
2021/01/17 07:35:07;;;;;;;22.75;14.38;;;0.00;99.90;;;;;;5072251;28;20196;-74
2021/01/17 07:37:33;;;;;;;25.45;15.98;;;0.10;99.90;;;;;;5070181;28;20192;-74
2021/01/17 07:40:07;;;;;;;20.48;14.68;;;0.10;99.90;;;;;;5071527;28;20190;-74
2021/01/17 07:42:33;;;;;;;22.70;14.63;;;0.10;99.90;;;;;;5069687;28;20264;-74
2021/01/17 07:45:15;;;;;;;22.87;13.27;;;0.10;99.90;;;;;;5070915;28;20282;-74
2021/01/17 07:47:43;;;;;;;21.83;12.43;;;0.20;99.90;;;;;;5064887;28;20943;-74
2021/01/17 07:50:10;;;;;;;24.17;13.70;;;0.20;99.90;;;;;;5071608;28;20229;-74
2021/01/17 07:52:42;;;;;;;19.83;14.32;;;0.20;99.90;;;;;;5070628;28;20537;-74
2021/01/17 07:55:11;;;;;;;23.25;12.50;;;0.20;99.90;;;;;;5072091;28;20521;-74
2021/01/17 07:57:37;;;;;;;20.25;11.60;;;0.20;99.90;;;;;;5071316;28;20637;-74
2021/01/17 08:00:07;;;;;;;18.07;12.13;;;0.20;99.90;;;;;;5071758;28;20190;-74
2021/01/17 08:02:35;;;;;;;20.73;13.90;;;0.30;99.90;;;;;;5070816;28;20232;-74
2021/01/17 08:05:02;;;;;;;18.25;11.15;;;0.30;99.90;;;;;;5071428;28;20178;-74
2021/01/17 08:07:32;;;;;;;19.23;12.10;;;0.40;99.90;;;;;;5069888;28;20178;-75
2021/01/17 08:09:59;;;;;;;19.67;11.77;;;0.40;99.90;;;;;;5071708;28;20217;-75
2021/01/17 08:12:39;;;;;;;23.60;15.20;;;0.40;99.90;;;;;;5070893;28;20198;-75
2021/01/17 08:15:28;;;;;;;20.25;12.90;;;0.40;99.90;;;;;;5065923;28;20186;-75
2021/01/17 08:17:54;;;;;;;16.17;12.38;;;0.50;99.90;;;;;;5071802;28;20584;-74
2021/01/17 08:20:21;;;;;;;21.83;14.00;;;0.50;99.90;;;;;;5070829;28;20190;-75
2021/01/17 08:22:47;;;;;;;22.00;12.65;;;0.60;99.90;;;;;;5066851;28;20184;-75
2021/01/17 08:25:14;;;;;;;26.47;14.10;;;0.60;99.90;;;;;;5071836;28;20529;-74
2021/01/17 08:27:44;;;;;;;18.13;13.32;;;0.70;99.90;;;;;;5071033;28;20185;-75
2021/01/17 08:30:22;;;;;;;20.33;12.32;;;0.70;99.90;;;;;;5071764;28;20210;-75
2021/01/17 08:32:50;;;;;;;21.05;13.60;;;0.70;99.90;;;;;;5081268;28;20203;-75
2021/01/17 08:35:18;;;;;;;18.70;11.88;;;0.80;99.90;;;;;;5071689;28;20174;-75
2021/01/17 08:38:08;;;;;;;22.10;13.85;;;0.80;99.90;;;;;;5071168;28;20190;-75
2021/01/17 08:40:34;;;;;;;22.08;13.35;;;0.80;99.90;;;;;;5071443;28;20704;-75
2021/01/17 08:43:01;;;;;;;19.57;12.60;;;0.90;99.90;;;;;;5064271;28;20206;-74
2021/01/17 08:45:27;;;;;;;20.75;12.55;;;0.90;99.90;;;;;;5071368;28;20234;-75
2021/01/17 08:48:15;;;;;;;21.77;12.17;;;0.90;99.90;;;;;;5071253;28;20186;-75
2021/01/17 08:50:41;;;;;;;17.27;11.43;;;1.00;99.90;;;;;;5069519;28;20224;-75
2021/01/17 08:53:12;;;;;;;19.65;10.80;;;1.00;99.90;;;;;;5066405;28;20231;-76
2021/01/17 08:55:41;;;;;;;19.83;12.38;;;1.00;99.90;;;;;;5070986;28;20186;-75
2021/01/17 08:58:07;;;;;;;17.70;11.90;;;1.10;99.90;;;;;;5067350;28;20210;-76
2021/01/17 09:00:48;;;;;;;19.65;13.25;;;1.10;99.90;;;;;;5074621;28;20225;-75
2021/01/17 09:03:42;;;;;;;25.02;15.80;;;1.10;99.90;;;;;;5068010;28;20180;-75
2021/01/17 09:06:19;;;;;;;17.58;13.45;;;1.20;99.90;;;;;;5062714;28;20638;-76
2021/01/17 09:08:47;;;;;;;21.02;11.95;;;1.20;99.90;;;;;;5071237;28;20178;-75
2021/01/17 09:11:28;;;;;;;16.75;12.23;;;1.30;99.90;;;;;;5072267;28;20214;-75
2021/01/17 09:14:10;;;;;;;17.92;11.50;;;1.30;99.90;;;;;;5072797;28;20205;-75
2021/01/17 09:16:41;;;;;;;17.05;10.20;;;1.30;99.90;;;;;;5066234;28;20193;-75
2021/01/17 09:19:08;;;;;;;21.67;12.80;;;1.40;99.90;;;;;;5073998;28;20555;-75
2021/01/17 09:21:37;;;;;;;18.70;11.82;;;1.40;99.90;;;;;;5068984;28;20269;-75
2021/01/17 09:24:07;;;;;;;17.55;11.18;;;1.50;99.90;;;;;;5073707;28;20182;-75
2021/01/17 09:26:32;;;;;;;18.25;10.93;;;1.60;99.90;;;;;;5069817;28;20198;-75
2021/01/17 09:28:58;;;;;;;15.77;10.87;;;1.60;99.90;;;;;;5071985;28;20657;-75
2021/01/17 09:31:27;;;;;;;15.07;9.60;;;1.70;99.90;;;;;;5073015;28;20574;-75
2021/01/17 09:33:53;;;;;;;18.65;12.57;;;1.70;99.90;;;;;;5073526;28;20186;-75
2021/01/17 09:36:25;;;;;;;18.88;11.50;;;1.70;99.90;;;;;;5069890;28;20264;-75
2021/01/17 09:38:52;;;;;;;16.95;11.70;;;1.70;99.90;;;;;;5068405;28;20182;-74
2021/01/17 09:41:23;;;;;;;17.80;11.18;;;1.80;99.90;;;;;;5073521;28;20614;-75
2021/01/17 09:43:50;;;;;;;18.10;10.32;;;1.80;99.90;;;;;;5072982;28;20196;-75
2021/01/17 09:46:22;;;;;;;17.13;9.98;;;1.80;99.90;;;;;;5073662;28;20194;-75
2021/01/17 09:48:55;;;;;;;15.35;10.48;;;1.80;99.90;;;;;;5073398;28;20300;-75
2021/01/17 09:51:22;;;;;;;17.50;9.88;;;1.90;99.90;;;;;;5065179;28;20186;-82
2021/01/17 09:53:48;;;;;;;15.35;10.00;;;1.90;99.90;;;;;;5072183;28;20536;-74
2021/01/17 09:56:14;;;;;;;17.57;12.53;;;2.00;99.90;;;;;;5073034;28;20194;-75
2021/01/17 09:58:40;;;;;;;19.02;12.52;;;2.00;99.90;;;;;;5073030;28;20702;-76
2021/01/17 10:01:06;;;;;;;19.37;12.70;;;2.00;99.90;;;;;;5071863;28;20308;-74
2021/01/17 10:03:33;;;;;;;22.63;14.53;;;2.10;99.90;;;;;;5072906;28;20471;-74
2021/01/17 10:05:58;;;;;;;19.77;13.00;;;2.10;99.90;;;;;;5073240;28;20186;-74
2021/01/17 10:08:27;;;;;;;17.47;12.10;;;2.10;99.90;;;;;;5064983;28;20200;-75
2021/01/17 10:10:53;;;;;;;17.25;11.52;;;2.20;99.90;;;;;;5070007;28;20258;-75
2021/01/17 10:13:19;;;;;;;18.07;12.57;;;2.20;99.90;;;;;;5063972;28;20189;-75
2021/01/17 10:15:47;;;;;;;16.50;11.13;;;2.20;99.90;;;;;;5070921;28;20664;-75
2021/01/17 10:18:13;;;;;;;15.65;10.80;;;2.30;99.90;;;;;;5072619;28;20193;-75
2021/01/17 10:20:39;;;;;;;13.73;9.60;;;2.20;99.90;;;;;;5070049;28;20192;-75
2021/01/17 10:23:07;;;;;;;19.60;10.65;;;2.20;99.90;;;;;;5071341;28;20266;-75
2021/01/17 10:25:33;;;;;;;17.67;10.70;;;2.30;99.90;;;;;;5066259;28;20199;-75
2021/01/17 10:28:04;;;;;;;14.20;11.15;;;2.30;99.90;;;;;;5067365;28;20181;-75
2021/01/17 10:30:32;;;;;;;16.17;10.23;;;2.30;99.90;;;;;;5071264;28;20209;-75
2021/01/17 10:33:06;;;;;;;18.80;11.50;;;2.30;99.90;;;;;;5067043;28;20205;-75
2021/01/17 10:35:37;;;;;;;14.25;11.05;;;2.30;99.90;;;;;;5072662;28;20694;-74
2021/01/17 10:38:05;;;;;;;17.73;11.98;;;2.30;99.90;;;;;;5070794;28;20538;-74
2021/01/17 10:40:31;;;;;;;17.67;11.65;;;2.30;99.90;;;;;;5072170;28;20673;-75
2021/01/17 10:43:03;;;;;;;17.40;12.07;;;2.40;99.90;;;;;;5069907;28;20276;-73
2021/01/17 10:45:29;;;;;;;16.83;11.35;;;2.40;99.90;;;;;;5071941;28;20439;-74
2021/01/17 10:48:12;;;;;;;15.15;10.52;;;2.50;99.90;;;;;;5070570;28;20696;-75
2021/01/17 10:50:51;;;;;;;17.88;12.32;;;2.50;99.90;;;;;;5072278;28;20224;-73
2021/01/17 10:53:32;;;;;;;16.13;11.52;;;2.60;99.90;;;;;;5069101;28;20170;-73
2021/01/17 10:55:59;;;;;;;15.45;11.10;;;2.70;99.90;;;;;;5072113;28;20185;-73
2021/01/17 10:58:40;;;;;;;12.60;9.10;;;2.70;99.90;;;;;;5068169;28;20676;-73
2021/01/17 11:01:06;;;;;;;12.23;8.43;;;2.70;99.90;;;;;;5072290;28;20221;-73
2021/01/17 11:03:43;;;;;;;13.85;9.93;;;2.70;99.90;;;;;;5069053;28;20197;-73
2021/01/17 11:06:18;;;;;;;15.13;10.68;;;2.70;99.90;;;;;;5072495;28;20189;-73
2021/01/17 11:08:56;;;;;;;12.57;9.85;;;2.70;99.90;;;;;;5066131;28;20184;-73
2021/01/17 11:11:29;;;;;;;16.45;10.70;;;2.80;99.90;;;;;;5073197;28;20216;-73
2021/01/17 11:13:59;;;;;;;12.85;10.20;;;2.80;99.90;;;;;;5065223;28;20182;-73
2021/01/17 11:16:42;;;;;;;15.63;9.63;;;2.80;99.90;;;;;;5072529;28;20185;-73
2021/01/17 11:19:12;;;;;;;14.98;10.82;;;2.90;99.90;;;;;;5070828;28;20330;-78
2021/01/17 11:21:39;;;;;;;15.30;10.93;;;3.00;99.90;;;;;;5070441;28;20196;-74
2021/01/17 11:24:06;;;;;;;15.50;10.63;;;3.00;99.90;;;;;;5062395;28;20195;-74
2021/01/17 11:26:32;;;;;;;15.35;11.25;;;3.00;99.90;;;;;;5069406;28;20192;-74
2021/01/17 11:29:02;;;;;;;13.32;11.48;;;3.00;99.90;;;;;;5065571;28;20548;-74
2021/01/17 11:31:28;;;;;;;14.85;11.02;;;3.00;99.90;;;;;;5065319;28;20218;-76
2021/01/17 11:33:55;;;;;;;12.77;8.93;;;3.00;99.90;;;;;;5069641;28;20210;-76
2021/01/17 11:36:27;;;;;;;13.10;8.55;;;3.00;99.90;;;;;;5072114;28;20190;-74
2021/01/17 11:38:59;;;;;;;10.98;8.32;;;3.00;99.90;;;;;;5068388;28;20185;-76
2021/01/17 11:41:36;;;;;;;15.75;12.05;;;3.00;99.90;;;;;;5067032;28;20311;-75
2021/01/17 11:44:20;;;;;;;16.77;10.52;;;3.00;99.90;;;;;;5058286;28;20178;-75
2021/01/17 11:46:46;;;;;;;13.07;9.57;;;3.00;99.90;;;;;;5073589;28;20195;-76
2021/01/17 11:49:13;;;;;;;16.42;10.63;;;2.90;99.90;;;;;;5071863;28;20193;-76
2021/01/17 11:51:39;;;;;;;17.13;11.18;;;2.90;99.90;;;;;;5071608;28;20193;-75
2021/01/17 11:54:11;;;;;;;11.05;9.60;;;2.90;99.90;;;;;;5066704;28;20554;-76
2021/01/17 11:56:37;;;;;;;12.40;9.95;;;2.80;99.90;;;;;;5069886;28;20189;-76
2021/01/17 11:59:02;;;;;;;10.90;9.23;;;2.80;99.90;;;;;;5066871;28;20664;-76
2021/01/17 12:01:28;;;;;;;13.37;10.10;;;2.80;99.90;;;;;;5068749;28;20225;-76
2021/01/17 12:04:02;;;;;;;12.20;8.47;;;2.80;99.90;;;;;;5071282;28;20653;-76
2021/01/17 12:06:27;;;;;;;12.70;9.20;;;2.90;99.90;;;;;;5070120;28;20699;-76
2021/01/17 12:08:53;;;;;;;17.00;11.57;;;2.90;99.90;;;;;;5070192;28;20194;-77
2021/01/17 12:11:28;;;;;;;11.83;9.10;;;2.90;99.90;;;;;;5070791;28;20210;-76
2021/01/17 12:13:54;;;;;;;11.85;8.15;;;2.90;99.90;;;;;;5066636;28;20181;-76
2021/01/17 12:16:36;;;;;;;11.33;7.87;;;2.90;99.90;;;;;;5070388;28;20668;-77
2021/01/17 12:19:03;;;;;;;12.00;8.02;;;2.90;99.90;;;;;;5071387;28;20794;-76
2021/01/17 12:21:30;;;;;;;9.52;6.55;;;2.90;99.90;;;;;;5070447;28;20182;-76
2021/01/17 12:23:57;;;;;;;10.63;6.57;;;2.90;99.90;;;;;;5069000;28;20244;-76
2021/01/17 12:26:23;;;;;;;9.23;7.10;;;2.90;99.90;;;;;;5069298;28;20182;-76
2021/01/17 12:28:49;;;;;;;9.52;6.30;;;2.90;99.90;;;;;;5070432;28;20216;-76
2021/01/17 12:31:15;;;;;;;7.67;5.60;;;3.00;99.90;;;;;;5074878;28;20206;-76
2021/01/17 12:33:42;;;;;;;9.88;6.30;;;2.90;99.90;;;;;;5073944;28;21004;-77
2021/01/17 12:36:09;;;;;;;7.80;5.95;;;2.90;99.90;;;;;;5074275;28;20198;-77
2021/01/17 12:38:35;;;;;;;7.93;6.00;;;2.90;99.90;;;;;;5069371;28;20690;-76
2021/01/17 12:41:06;;;;;;;7.17;5.37;;;2.90;99.90;;;;;;5074398;28;20238;-76
2021/01/17 12:43:31;;;;;;;8.52;6.10;;;2.90;99.90;;;;;;5069589;28;20502;-77
2021/01/17 12:45:57;;;;;;;9.23;5.13;;;2.80;99.90;;;;;;5074289;28;20190;-76
2021/01/17 12:48:22;;;;;;;6.33;5.07;;;2.80;99.90;;;;;;5078368;28;20436;-76
2021/01/17 12:50:48;;;;;;;7.67;5.43;;;2.80;99.90;;;;;;5076550;28;20300;-76